createdAt,value
2022-08-17T00:00:42.758Z,101090.56
2022-08-17T00:01:22.510Z,101093.00
2022-08-17T00:01:57.325Z,101086.38
2022-08-17T00:02:34.343Z,101091.16
2022-08-17T00:03:19.691Z,101088.81
2022-08-17T00:03:54.163Z,101092.34
2022-08-17T00:04:25.512Z,101087.59
2022-08-17T00:04:56.833Z,101087.25
2022-08-17T00:05:31.268Z,101084.50
2022-08-17T00:06:36.928Z,101092.34
2022-08-17T00:07:08.280Z,101085.69
2022-08-17T00:07:39.652Z,101087.25
2022-08-17T00:08:31.347Z,101084.50
2022-08-17T00:09:04.024Z,101078.16
2022-08-17T00:09:35.364Z,101085.69
2022-08-17T00:10:07.123Z,101080.59
2022-08-17T00:10:38.704Z,101074.72
2022-08-17T00:11:28.988Z,101074.72
2022-08-17T00:12:50.265Z,101067.28
2022-08-17T00:14:19.680Z,101066.16
2022-08-17T00:14:51.014Z,101057.50
2022-08-17T00:15:23.148Z,101056.28
2022-08-17T00:15:58.568Z,101058.28
2022-08-17T00:16:55.460Z,101066.59
2022-08-17T00:17:25.368Z,101065.38
2022-08-17T00:17:57.009Z,101064.94
2022-08-17T00:19:01.551Z,101075.25
2022-08-17T00:20:13.415Z,101061.41
2022-08-17T00:20:46.553Z,101064.16
2022-08-17T00:22:31.047Z,101070.94
2022-08-17T00:22:35.626Z,101072.59
2022-08-17T00:23:14.535Z,101068.72
2022-08-17T00:23:48.988Z,101069.16
2022-08-17T00:24:20.974Z,101069.16
2022-08-17T00:24:52.355Z,101067.63
2022-08-17T00:25:23.672Z,101071.94
2022-08-17T00:25:55.148Z,101064.84
2022-08-17T00:26:38.795Z,101074.72
2022-08-17T00:27:16.315Z,101068.41
2022-08-17T00:27:47.700Z,101062.84
2022-08-17T00:28:19.731Z,101064.41
2022-08-17T00:28:52.727Z,101061.63
2022-08-17T00:29:24.100Z,101058.53
2022-08-17T00:29:55.416Z,101058.09
2022-08-17T00:30:26.788Z,101056.09
2022-08-17T00:30:59.229Z,101063.63
2022-08-17T00:31:30.868Z,101055.31
2022-08-17T00:33:12.249Z,101058.88
2022-08-17T00:33:15.572Z,101053.31
2022-08-17T00:33:46.311Z,101056.53
2022-08-17T00:34:17.886Z,101057.75
2022-08-17T00:35:08.626Z,101056.53
2022-08-17T00:35:40.094Z,101054.19
2022-08-17T00:36:12.770Z,101053.41
2022-08-17T00:36:44.106Z,101059.75
2022-08-17T00:37:15.480Z,101056.19
2022-08-17T00:37:46.796Z,101058.97
2022-08-17T00:38:18.244Z,101054.19
2022-08-17T00:38:50.331Z,101052.22
2022-08-17T00:39:21.725Z,101058.19
2022-08-17T00:39:53.184Z,101053.41
2022-08-17T00:40:24.900Z,101058.19
2022-08-17T00:40:59.784Z,101052.66
2022-08-17T00:41:31.449Z,101054.19
2022-08-17T00:42:16.040Z,101052.22
2022-08-17T00:42:49.001Z,101051.44
2022-08-17T00:43:36.015Z,101058.19
2022-08-17T00:44:09.068Z,101049.53
2022-08-17T00:44:40.432Z,101053.09
2022-08-17T00:45:13.744Z,101051.53
2022-08-17T00:45:46.479Z,101048.75
2022-08-17T00:46:26.316Z,101057.06
2022-08-17T00:46:57.664Z,101048.75
2022-08-17T00:47:28.996Z,101047.19
2022-08-17T00:48:00.343Z,101054.28
2022-08-17T00:48:32.296Z,101047.97
2022-08-17T00:49:55.644Z,101055.50
2022-08-17T00:50:27.189Z,101049.97
2022-08-17T00:51:28.397Z,101053.53
2022-08-17T00:52:10.782Z,101053.53
2022-08-17T00:52:50.571Z,101049.97
2022-08-17T00:53:22.287Z,101049.97
2022-08-17T00:54:56.916Z,101048.75
2022-08-17T00:55:28.368Z,101051.97
2022-08-17T00:56:02.883Z,101044.44
2022-08-17T00:56:56.218Z,101041.66
2022-08-17T00:57:40.125Z,101038.56
2022-08-17T00:58:11.862Z,101046.09
2022-08-17T00:58:43.468Z,101043.31
2022-08-17T00:59:19.324Z,101046.09
2022-08-17T01:00:03.061Z,101048.84
2022-08-17T01:00:42.643Z,101042.53
2022-08-17T01:01:21.701Z,101040.53
2022-08-17T01:01:53.648Z,101035.00
2022-08-17T01:03:21.208Z,101041.75
2022-08-17T01:03:54.257Z,101039.00
2022-08-17T01:04:31.395Z,101034.66
2022-08-17T01:05:02.804Z,101037.88
2022-08-17T01:05:54.205Z,101032.00
2022-08-17T01:06:26.997Z,101036.31
2022-08-17T01:06:59.056Z,101034.00
2022-08-17T01:07:30.959Z,101040.31
2022-08-17T01:08:02.593Z,101037.09
2022-08-17T01:08:35.648Z,101039.53
2022-08-17T01:09:25.340Z,101039.09
2022-08-17T01:09:57.213Z,101030.00
2022-08-17T01:10:59.457Z,101031.22
2022-08-17T01:11:33.076Z,101025.38
2022-08-17T01:12:07.816Z,101030.13
2022-08-17T01:13:41.194Z,101026.25
2022-08-17T01:14:14.111Z,101021.16
2022-08-17T01:14:46.019Z,101021.16
2022-08-17T01:15:37.364Z,101022.34
2022-08-17T01:16:21.635Z,101019.25
2022-08-17T01:16:55.084Z,101018.47
2022-08-17T01:17:28.891Z,101022.47
2022-08-17T01:18:19.052Z,101021.69
2022-08-17T01:18:53.281Z,101025.66
2022-08-17T01:19:30.654Z,101031.22
2022-08-17T01:20:02.198Z,101031.22
2022-08-17T01:20:43.148Z,101022.13
2022-08-17T01:21:41.440Z,101026.88
2022-08-17T01:22:12.729Z,101017.78
2022-08-17T01:22:44.270Z,101017.78
2022-08-17T01:23:21.226Z,101014.25
2022-08-17T01:23:52.794Z,101019.00
2022-08-17T01:24:24.643Z,101012.25
2022-08-17T01:25:01.990Z,101020.56
2022-08-17T01:25:33.325Z,101014.25
2022-08-17T01:26:06.228Z,101016.25
2022-08-17T01:26:39.837Z,101018.25
2022-08-17T01:27:13.631Z,101021.78
2022-08-17T01:28:55.793Z,101013.56
2022-08-17T01:29:30.691Z,101010.50
2022-08-17T01:30:06.835Z,101011.72
2022-08-17T01:31:00.860Z,101009.72
2022-08-17T01:31:39.359Z,101008.94
2022-08-17T01:32:10.740Z,101008.94
2022-08-17T01:32:42.193Z,101009.72
2022-08-17T01:33:13.596Z,101014.78
2022-08-17T01:34:42.315Z,101014.47
2022-08-17T01:35:14.859Z,101010.94
2022-08-17T01:35:46.412Z,101003.41
2022-08-17T01:36:17.749Z,101006.94
2022-08-17T01:36:49.875Z,101012.91
2022-08-17T01:37:29.544Z,101016.47
2022-08-17T01:38:00.902Z,101014.47
2022-08-17T01:38:33.194Z,101013.25
2022-08-17T01:39:09.461Z,101019.56
2022-08-17T01:39:53.812Z,101019.13
2022-08-17T01:40:39.036Z,101018.66
2022-08-17T01:42:34.284Z,101011.47
2022-08-17T01:43:10.458Z,101015.03
2022-08-17T01:43:51.990Z,101011.03
2022-08-17T01:44:23.640Z,101014.59
2022-08-17T01:44:58.809Z,101012.59
2022-08-17T01:45:33.772Z,101010.59
2022-08-17T01:46:05.539Z,101011.38
2022-08-17T01:46:37.263Z,101011.38
2022-08-17T01:47:08.587Z,101013.72
2022-08-17T01:47:41.571Z,101013.28
2022-08-17T01:48:13.915Z,101013.63
2022-08-17T01:48:47.354Z,101019.94
2022-08-17T01:49:19.494Z,101013.63
2022-08-17T01:49:50.839Z,101012.06
2022-08-17T01:50:28.416Z,101011.28
2022-08-17T01:51:00.816Z,101009.72
2022-08-17T01:51:33.265Z,101004.19
2022-08-17T01:52:08.225Z,101009.72
2022-08-17T01:52:40.404Z,101009.72
2022-08-17T01:53:36.636Z,101001.06
2022-08-17T01:55:05.749Z,101008.28
2022-08-17T01:55:43.225Z,101013.03
2022-08-17T01:56:18.901Z,101009.06
2022-08-17T01:56:51.826Z,101013.38
2022-08-17T01:57:23.148Z,101007.06
2022-08-17T01:58:13.416Z,101010.25
2022-08-17T01:58:45.608Z,101012.59
2022-08-17T01:59:18.569Z,101013.03
2022-08-17T01:59:49.964Z,101015.47
2022-08-17T02:00:21.825Z,101011.47
2022-08-17T02:01:00.875Z,101014.25
2022-08-17T02:01:34.560Z,101010.25
2022-08-17T02:02:07.232Z,101011.47
2022-08-17T02:02:39.892Z,101015.03
2022-08-17T02:03:12.763Z,101012.25
2022-08-17T02:03:53.419Z,101013.03
2022-08-17T02:04:31.929Z,101014.59
2022-08-17T02:05:04.151Z,101011.81
2022-08-17T02:05:35.484Z,101016.91
2022-08-17T02:06:21.031Z,101011.81
2022-08-17T02:06:59.520Z,101014.25
2022-08-17T02:07:31.934Z,101013.03
2022-08-17T02:08:38.665Z,101011.47
2022-08-17T02:09:16.635Z,101008.72
2022-08-17T02:09:52.597Z,101009.50
2022-08-17T02:10:24.216Z,101013.81
2022-08-17T02:11:14.463Z,101007.50
2022-08-17T02:11:46.239Z,101013.47
2022-08-17T02:12:38.778Z,101012.25
2022-08-17T02:13:09.431Z,101009.94
2022-08-17T02:13:41.022Z,101010.38
2022-08-17T02:14:31.182Z,101009.50
2022-08-17T02:15:02.532Z,101010.25
2022-08-17T02:15:35.023Z,101014.16
2022-08-17T02:16:06.723Z,101015.25
2022-08-17T02:16:40.363Z,101013.72
2022-08-17T02:17:11.863Z,101019.25
2022-08-17T02:17:43.200Z,101019.59
2022-08-17T02:18:15.606Z,101021.16
2022-08-17T02:19:05.889Z,101011.63
2022-08-17T02:19:37.208Z,101013.94
2022-08-17T02:20:10.036Z,101026.25
2022-08-17T02:20:42.958Z,101025.47
2022-08-17T02:21:32.863Z,101020.81
2022-08-17T02:22:05.068Z,101026.34
2022-08-17T02:22:39.495Z,101027.91
2022-08-17T02:23:12.980Z,101036.22
2022-08-17T02:23:47.376Z,101034.56
2022-08-17T02:24:59.440Z,101037.31
2022-08-17T02:25:21.814Z,101035.34
2022-08-17T02:25:55.339Z,101043.22
2022-08-17T02:26:26.849Z,101036.44
2022-08-17T02:26:58.267Z,101040.78
2022-08-17T02:27:30.209Z,101049.41
2022-08-17T02:28:50.937Z,101044.53
2022-08-17T02:29:22.903Z,101048.53
2022-08-17T02:29:54.326Z,101052.06
2022-08-17T02:31:01.767Z,101047.75
2022-08-17T02:31:35.457Z,101049.72
2022-08-17T02:32:27.957Z,101047.41
2022-08-17T02:33:00.417Z,101051.72
2022-08-17T02:33:41.521Z,101056.16
2022-08-17T02:34:15.567Z,101055.38
2022-08-17T02:34:47.303Z,101053.84
2022-08-17T02:35:20.089Z,101055.84
2022-08-17T02:35:53.585Z,101055.84
2022-08-17T02:36:27.426Z,101059.41
2022-08-17T02:36:58.943Z,101056.63
2022-08-17T02:37:31.478Z,101059.06
2022-08-17T02:38:04.920Z,101057.06
2022-08-17T02:38:37.383Z,101066.59
2022-08-17T02:39:11.587Z,101061.03
2022-08-17T02:39:44.560Z,101057.94
2022-08-17T02:40:16.855Z,101056.81
2022-08-17T02:41:05.084Z,101058.03
2022-08-17T02:41:37.407Z,101067.56
2022-08-17T02:42:08.920Z,101064.00
2022-08-17T02:42:42.024Z,101065.66
2022-08-17T02:43:13.647Z,101070.09
2022-08-17T02:43:45.235Z,101065.31
2022-08-17T02:44:38.873Z,101075.63
2022-08-17T02:45:15.163Z,101072.50
2022-08-17T02:45:46.543Z,101076.50
2022-08-17T02:46:19.420Z,101075.72
2022-08-17T02:46:51.026Z,101075.72
2022-08-17T02:47:22.586Z,101078.50
2022-08-17T02:47:54.045Z,101080.50
2022-08-17T02:48:28.044Z,101079.72
2022-08-17T02:49:04.346Z,101076.97
2022-08-17T02:49:38.502Z,101076.97
2022-08-17T02:50:12.189Z,101075.72
2022-08-17T02:50:43.512Z,101074.19
2022-08-17T02:51:15.274Z,101071.44
2022-08-17T02:51:47.233Z,101070.66
2022-08-17T02:52:18.736Z,101067.09
2022-08-17T02:53:10.045Z,101062.78
2022-08-17T02:53:41.378Z,101061.88
2022-08-17T02:54:40.659Z,101067.88
2022-08-17T02:55:06.675Z,101066.66
2022-08-17T02:55:40.372Z,101066.66
2022-08-17T02:56:11.715Z,101063.91
2022-08-17T02:56:43.484Z,101060.78
2022-08-17T02:57:14.931Z,101052.47
2022-08-17T02:58:04.996Z,101058.41
2022-08-17T02:58:36.417Z,101059.63
2022-08-17T02:59:07.755Z,101051.31
2022-08-17T02:59:39.675Z,101054.09
2022-08-17T03:00:15.921Z,101049.34
2022-08-17T03:00:48.187Z,101043.44
2022-08-17T03:01:20.208Z,101047.00
2022-08-17T03:01:51.959Z,101050.97
2022-08-17T03:02:41.707Z,101053.75
2022-08-17T03:03:18.579Z,101049.00
2022-08-17T03:04:08.660Z,101051.41
2022-08-17T03:04:40.089Z,101048.66
2022-08-17T03:05:15.859Z,101049.88
2022-08-17T03:05:49.344Z,101055.50
2022-08-17T03:06:39.088Z,101053.94
2022-08-17T03:07:10.428Z,101048.41
2022-08-17T03:07:42.300Z,101050.06
2022-08-17T03:08:14.873Z,101050.06
2022-08-17T03:08:46.200Z,101040.19
2022-08-17T03:09:17.536Z,101046.06
2022-08-17T03:09:48.884Z,101051.19
2022-08-17T03:10:21.554Z,101054.28
2022-08-17T03:10:53.183Z,101053.06
2022-08-17T03:11:24.596Z,101048.31
2022-08-17T03:12:04.843Z,101045.09
2022-08-17T03:12:38.652Z,101049.44
2022-08-17T03:13:29.043Z,101046.22
2022-08-17T03:14:00.391Z,101041.91
2022-08-17T03:14:32.359Z,101046.22
2022-08-17T03:15:23.627Z,101038.34
2022-08-17T03:15:55.002Z,101039.56
2022-08-17T03:16:26.476Z,101033.34
2022-08-17T03:16:59.043Z,101038.53
2022-08-17T03:17:30.422Z,101031.44
2022-08-17T03:18:03.632Z,101034.22
2022-08-17T03:18:35.154Z,101031.00
2022-08-17T03:19:06.492Z,101029.03
2022-08-17T03:19:39.694Z,101034.91
2022-08-17T03:20:16.141Z,101025.38
2022-08-17T03:20:47.552Z,101036.03
2022-08-17T03:21:37.787Z,101030.03
2022-08-17T03:22:36.277Z,101018.97
2022-08-17T03:23:01.896Z,101015.75
2022-08-17T03:23:54.476Z,101018.53
2022-08-17T03:24:28.736Z,101018.09
2022-08-17T03:25:19.488Z,101020.84
2022-08-17T03:25:54.895Z,101019.66
2022-08-17T03:26:29.823Z,101020.09
2022-08-17T03:27:01.286Z,101025.19
2022-08-17T03:27:32.920Z,101019.66
2022-08-17T03:28:05.924Z,101020.84
2022-08-17T03:28:38.604Z,101020.84
2022-08-17T03:29:10.311Z,101016.88
2022-08-17T03:29:41.619Z,101019.66
2022-08-17T03:31:02.955Z,101020.44
2022-08-17T03:31:34.281Z,101021.22
2022-08-17T03:32:16.212Z,101019.25
2022-08-17T03:33:07.047Z,101023.56
2022-08-17T03:33:38.403Z,101020.03
2022-08-17T03:34:09.722Z,101022.00
2022-08-17T03:34:41.585Z,101026.78
2022-08-17T03:35:16.433Z,101026.00
2022-08-17T03:35:50.447Z,101031.53
2022-08-17T03:36:22.195Z,101024.00
2022-08-17T03:36:53.540Z,101029.09
2022-08-17T03:37:24.927Z,101031.09
2022-08-17T03:38:00.941Z,101030.66
2022-08-17T03:38:39.327Z,101025.88
2022-08-17T03:39:10.995Z,101026.63
2022-08-17T03:39:43.511Z,101025.13
2022-08-17T03:40:15.510Z,101024.00
2022-08-17T03:41:07.156Z,101023.22
2022-08-17T03:41:39.039Z,101016.09
2022-08-17T03:42:31.954Z,101022.41
2022-08-17T03:43:07.043Z,101022.06
2022-08-17T03:43:38.424Z,101020.53
2022-08-17T03:44:09.801Z,101019.31
2022-08-17T03:44:41.163Z,101027.19
2022-08-17T03:45:16.693Z,101031.16
2022-08-17T03:46:34.215Z,101023.63
2022-08-17T03:47:24.767Z,101034.81
2022-08-17T03:48:14.513Z,101025.38
2022-08-17T03:49:04.142Z,101038.09
2022-08-17T03:49:53.728Z,101032.56
2022-08-17T03:50:44.160Z,101037.66
2022-08-17T03:51:42.653Z,101047.09
2022-08-17T03:52:32.477Z,101047.88
2022-08-17T03:53:27.094Z,101054.97
2022-08-17T03:54:17.864Z,101050.97
2022-08-17T03:55:35.749Z,101054.53
2022-08-17T03:56:27.047Z,101066.38
2022-08-17T03:57:08.911Z,101066.38
2022-08-17T03:57:40.503Z,101060.84
2022-08-17T03:58:30.860Z,101063.63
2022-08-17T03:59:02.185Z,101070.38
2022-08-17T03:59:34.772Z,101074.34
2022-08-17T04:00:25.869Z,101075.13
2022-08-17T04:00:57.347Z,101068.81
2022-08-17T04:01:30.859Z,101073.56
2022-08-17T04:02:08.905Z,101071.25
2022-08-17T04:02:42.784Z,101068.13
2022-08-17T04:03:33.020Z,101066.56
2022-08-17T04:04:05.312Z,101071.34
2022-08-17T04:04:37.676Z,101071.34
2022-08-17T04:05:09.495Z,101067.34
2022-08-17T04:05:41.559Z,101070.13
2022-08-17T04:07:01.662Z,101065.69
2022-08-17T04:07:33.048Z,101072.81
2022-08-17T04:08:05.349Z,101070.03
2022-08-17T04:08:36.837Z,101072.38
2022-08-17T04:09:09.341Z,101065.28
2022-08-17T04:09:40.670Z,101070.03
2022-08-17T04:10:12.051Z,101074.78
2022-08-17T04:10:45.034Z,101068.91
2022-08-17T04:11:16.703Z,101066.56
2022-08-17T04:11:48.049Z,101070.13
2022-08-17T04:12:21.858Z,101073.66
2022-08-17T04:13:43.482Z,101070.13
2022-08-17T04:14:14.844Z,101069.34
2022-08-17T04:14:53.637Z,101072.88
2022-08-17T04:15:25.991Z,101074.00
2022-08-17T04:15:59.135Z,101078.44
2022-08-17T04:16:30.759Z,101076.09
2022-08-17T04:17:02.451Z,101075.31
2022-08-17T04:17:33.811Z,101073.31
2022-08-17T04:18:07.345Z,101076.53
2022-08-17T04:18:38.874Z,101067.44
2022-08-17T04:19:10.268Z,101075.88
2022-08-17T04:19:41.596Z,101073.09
2022-08-17T04:20:15.002Z,101076.31
2022-08-17T04:20:46.379Z,101079.50
2022-08-17T04:21:19.163Z,101080.28
2022-08-17T04:21:50.508Z,101070.78
2022-08-17T04:22:32.024Z,101070.78
2022-08-17T04:23:10.633Z,101077.88
2022-08-17T04:23:42.080Z,101079.09
2022-08-17T04:24:14.211Z,101072.41
2022-08-17T04:24:45.530Z,101071.31
2022-08-17T04:25:18.425Z,101072.50
2022-08-17T04:25:51.043Z,101073.72
2022-08-17T04:26:52.801Z,101072.50
2022-08-17T04:27:14.101Z,101078.06
2022-08-17T04:27:45.502Z,101073.72
2022-08-17T04:28:18.811Z,101076.94
2022-08-17T04:28:50.769Z,101073.38
2022-08-17T04:29:22.233Z,101087.22
2022-08-17T04:30:11.902Z,101086.78
2022-08-17T04:30:45.047Z,101083.59
2022-08-17T04:31:16.853Z,101076.84
2022-08-17T04:31:48.576Z,101084.38
2022-08-17T04:33:00.578Z,101080.81
2022-08-17T04:33:17.452Z,101088.34
2022-08-17T04:33:48.811Z,101078.81
2022-08-17T04:34:20.177Z,101083.59
2022-08-17T04:34:53.679Z,101087.56
2022-08-17T04:35:48.818Z,101086.44
2022-08-17T04:36:20.162Z,101081.34
2022-08-17T04:36:52.548Z,101083.34
2022-08-17T04:37:23.881Z,101091.28
2022-08-17T04:37:55.223Z,101086.19
2022-08-17T04:38:29.686Z,101090.16
2022-08-17T04:39:01.740Z,101078.31
2022-08-17T04:39:33.972Z,101082.66
2022-08-17T04:40:25.924Z,101083.06
2022-08-17T04:41:17.741Z,101080.31
2022-08-17T04:42:07.001Z,101073.56
2022-08-17T04:42:38.316Z,101083.06
2022-08-17T04:43:12.695Z,101068.94
2022-08-17T04:43:45.592Z,101078.44
2022-08-17T04:44:27.260Z,101075.31
2022-08-17T04:45:08.646Z,101077.41
2022-08-17T04:45:55.556Z,101074.28
2022-08-17T04:46:34.032Z,101075.94
2022-08-17T04:47:07.052Z,101073.59
2022-08-17T04:47:41.940Z,101071.25
2022-08-17T04:48:14.408Z,101074.03
2022-08-17T04:48:51.051Z,101079.91
2022-08-17T04:49:22.657Z,101074.28
2022-08-17T04:49:53.967Z,101072.72
2022-08-17T04:50:25.308Z,101077.94
2022-08-17T04:50:59.879Z,101070.06
2022-08-17T04:51:34.244Z,101070.50
2022-08-17T04:52:05.623Z,101073.25
2022-08-17T04:52:45.970Z,101071.25
2022-08-17T04:53:19.466Z,101072.81
2022-08-17T04:54:42.500Z,101066.16
2022-08-17T04:55:15.098Z,101069.28
2022-08-17T04:56:36.011Z,101070.84
2022-08-17T04:57:07.345Z,101068.50
2022-08-17T04:57:44.547Z,101074.81
2022-08-17T04:58:16.492Z,101074.03
2022-08-17T04:58:52.531Z,101072.03
2022-08-17T04:59:23.883Z,101067.72
2022-08-17T05:00:32.787Z,101067.72
2022-08-17T05:01:05.731Z,101066.94
2022-08-17T05:01:56.270Z,101068.94
2022-08-17T05:02:27.586Z,101063.88
2022-08-17T05:02:59.284Z,101061.53
2022-08-17T05:03:30.915Z,101068.28
2022-08-17T05:04:20.840Z,101060.41
2022-08-17T05:05:16.804Z,101067.50
2022-08-17T05:05:50.112Z,101072.59
2022-08-17T05:06:22.453Z,101069.81
2022-08-17T05:06:55.579Z,101069.06
2022-08-17T05:07:30.939Z,101065.50
2022-08-17T05:08:05.371Z,101066.28
2022-08-17T05:08:38.728Z,101080.53
2022-08-17T05:09:10.457Z,101069.91
2022-08-17T05:09:41.795Z,101075.88
2022-08-17T05:10:13.443Z,101067.22
2022-08-17T05:10:45.916Z,101071.56
2022-08-17T05:11:17.911Z,101073.13
2022-08-17T05:12:07.880Z,101070.69
2022-08-17T05:12:39.226Z,101077.34
2022-08-17T05:13:15.470Z,101076.56
2022-08-17T05:13:49.949Z,101075.34
2022-08-17T05:15:15.876Z,101073.81
2022-08-17T05:15:49.044Z,101075.34
2022-08-17T05:16:22.000Z,101084.44
2022-08-17T05:16:53.335Z,101079.34
2022-08-17T05:17:24.655Z,101082.88
2022-08-17T05:17:56.152Z,101073.81
2022-08-17T05:18:29.183Z,101082.88
2022-08-17T05:19:00.683Z,101074.16
2022-08-17T05:19:32.005Z,101070.13
2022-08-17T05:20:03.956Z,101078.13
2022-08-17T05:20:36.928Z,101072.91
2022-08-17T05:21:08.351Z,101071.69
2022-08-17T05:21:39.733Z,101071.25
2022-08-17T05:22:11.047Z,101075.59
2022-08-17T05:22:51.040Z,101071.63
2022-08-17T05:23:25.443Z,101070.84
2022-08-17T05:23:58.475Z,101068.50
2022-08-17T05:24:42.919Z,101067.38
2022-08-17T05:25:52.446Z,101072.16
2022-08-17T05:26:26.723Z,101072.16
2022-08-17T05:27:02.588Z,101068.28
2022-08-17T05:27:38.060Z,101071.03
2022-08-17T05:28:13.140Z,101069.47
2022-08-17T05:28:44.723Z,101070.69
2022-08-17T05:29:18.724Z,101067.94
2022-08-17T05:29:50.097Z,101077.44
2022-08-17T05:30:22.487Z,101075.09
2022-08-17T05:30:55.956Z,101066.03
2022-08-17T05:32:38.550Z,101069.91
2022-08-17T05:33:14.763Z,101070.25
2022-08-17T05:33:46.336Z,101067.06
2022-08-17T05:34:17.750Z,101067.84
2022-08-17T05:34:49.080Z,101063.09
2022-08-17T05:35:21.060Z,101067.84
2022-08-17T05:35:55.081Z,101068.63
2022-08-17T05:36:42.517Z,101068.16
2022-08-17T05:38:05.081Z,101063.50
2022-08-17T05:38:36.900Z,101068.28
2022-08-17T05:39:08.255Z,101069.06
2022-08-17T05:39:47.036Z,101071.03
2022-08-17T05:40:20.699Z,101066.72
2022-08-17T05:40:53.484Z,101063.94
2022-08-17T05:41:24.803Z,101068.28
2022-08-17T05:41:56.117Z,101065.50
2022-08-17T05:42:27.448Z,101070.25
2022-08-17T05:43:06.366Z,101065.50
2022-08-17T05:43:57.605Z,101077.44
2022-08-17T05:44:28.931Z,101075.53
2022-08-17T05:45:00.539Z,101079.06
2022-08-17T05:45:54.856Z,101078.28
2022-08-17T05:47:18.192Z,101072.41
2022-08-17T05:47:49.508Z,101079.50
2022-08-17T05:48:20.988Z,101072.00
2022-08-17T05:49:08.017Z,101077.94
2022-08-17T05:49:39.637Z,101079.50
2022-08-17T05:50:29.857Z,101076.75
2022-08-17T05:51:23.671Z,101073.63
2022-08-17T05:52:21.911Z,101072.50
2022-08-17T05:53:18.824Z,101074.06
2022-08-17T05:55:15.142Z,101072.50
2022-08-17T05:55:56.637Z,101072.94
2022-08-17T05:56:38.781Z,101070.16
2022-08-17T05:57:35.903Z,101072.94
2022-08-17T05:58:29.347Z,101072.06
2022-08-17T05:59:17.882Z,101062.91
2022-08-17T06:00:20.772Z,101060.50
2022-08-17T06:01:29.501Z,101064.81
2022-08-17T06:02:19.041Z,101065.59
2022-08-17T06:03:12.032Z,101062.03
2022-08-17T06:03:49.409Z,101046.66
2022-08-17T06:04:30.944Z,101052.97
2022-08-17T06:05:11.184Z,101060.06
2022-08-17T06:06:17.020Z,101049.00
2022-08-17T06:06:57.516Z,101047.78
2022-08-17T06:07:40.815Z,101052.88
2022-08-17T06:09:43.702Z,101053.66
2022-08-17T06:10:38.871Z,101042.25
2022-08-17T06:12:43.586Z,101040.69
2022-08-17T06:13:54.280Z,101044.56
2022-08-17T06:16:33.859Z,101057.53
2022-08-17T06:17:12.527Z,101063.41
2022-08-17T06:17:44.512Z,101061.41
2022-08-17T06:18:19.210Z,101064.19
2022-08-17T06:19:14.707Z,101054.22
2022-08-17T06:19:52.696Z,101054.56
2022-08-17T06:20:27.741Z,101058.47
2022-08-17T06:21:03.524Z,101054.47
2022-08-17T06:21:39.332Z,101060.78
2022-08-17T06:22:15.134Z,101065.13
2022-08-17T06:22:50.729Z,101061.16
2022-08-17T06:23:41.551Z,101067.38
2022-08-17T06:24:34.094Z,101069.69
2022-08-17T06:25:29.850Z,101078.00
2022-08-17T06:26:17.432Z,101073.25
2022-08-17T06:26:50.244Z,101079.56
2022-08-17T06:27:53.497Z,101075.13
2022-08-17T06:28:38.742Z,101073.13
2022-08-17T06:29:58.734Z,101068.94
2022-08-17T06:30:59.583Z,101075.66
2022-08-17T06:31:31.248Z,101073.34
2022-08-17T06:32:05.003Z,101065.91
2022-08-17T06:32:38.315Z,101067.09
2022-08-17T06:33:19.210Z,101069.53
2022-08-17T06:33:50.548Z,101073.09
2022-08-17T06:34:21.946Z,101072.31
2022-08-17T06:34:53.692Z,101080.16
2022-08-17T06:35:39.365Z,101071.44
2022-08-17T06:36:41.553Z,101086.41
2022-08-17T06:37:12.840Z,101086.75
2022-08-17T06:38:04.576Z,101087.88
2022-08-17T06:38:54.689Z,101094.06
2022-08-17T06:39:42.691Z,101090.84
2022-08-17T06:42:00.666Z,101094.31
2022-08-17T06:42:55.125Z,101096.31
2022-08-17T06:44:55.298Z,101096.41
2022-08-17T06:45:39.640Z,101102.72
2022-08-17T06:46:42.456Z,101105.81
2022-08-17T06:47:58.695Z,101104.97
2022-08-17T06:48:48.538Z,101113.59
2022-08-17T06:50:01.297Z,101105.75
2022-08-17T06:50:59.917Z,101104.53
2022-08-17T06:51:38.111Z,101107.28
2022-08-17T06:52:46.943Z,101114.72
2022-08-17T06:53:31.794Z,101110.75
2022-08-17T06:54:06.736Z,101115.84
2022-08-17T06:54:47.084Z,101112.31
2022-08-17T06:55:38.304Z,101114.63
2022-08-17T06:56:13.638Z,101102.78
2022-08-17T06:56:59.479Z,101105.09
2022-08-17T06:57:35.105Z,101110.19
2022-08-17T06:58:16.267Z,101111.41
2022-08-17T06:58:48.228Z,101102.66
2022-08-17T06:59:26.138Z,101106.22
2022-08-17T07:01:00.872Z,101103.09
2022-08-17T07:01:36.743Z,101110.19
2022-08-17T07:02:10.896Z,101107.44
2022-08-17T07:02:59.476Z,101110.97
2022-08-17T07:03:38.608Z,101111.31
2022-08-17T07:04:19.075Z,101112.44
2022-08-17T07:04:51.645Z,101111.66
2022-08-17T07:05:42.760Z,101104.47
2022-08-17T07:06:18.273Z,101100.50
2022-08-17T07:06:58.871Z,101107.25
2022-08-17T07:08:04.171Z,101099.72
2022-08-17T07:08:52.809Z,101106.81
2022-08-17T07:09:37.797Z,101107.59
2022-08-17T07:10:10.748Z,101104.38
2022-08-17T07:10:53.672Z,101113.47
2022-08-17T07:11:48.962Z,101102.38
2022-08-17T07:12:24.986Z,101100.41
2022-08-17T07:13:06.410Z,101093.31
2022-08-17T07:13:59.739Z,101097.28
2022-08-17T07:15:10.153Z,101112.69
2022-08-17T07:15:42.835Z,101108.72
2022-08-17T07:16:59.039Z,101104.72
2022-08-17T07:17:46.731Z,101109.84
2022-08-17T07:18:20.806Z,101100.78
2022-08-17T07:18:54.735Z,101111.03
2022-08-17T07:19:31.453Z,101111.47
2022-08-17T07:20:09.144Z,101107.94
2022-08-17T07:21:04.776Z,101111.47
2022-08-17T07:22:03.692Z,101109.47
2022-08-17T07:23:00.786Z,101113.81
2022-08-17T07:23:46.723Z,101109.06
2022-08-17T07:24:47.085Z,101114.63
2022-08-17T07:25:20.915Z,101114.63
2022-08-17T07:25:52.489Z,101114.19
2022-08-17T07:26:24.188Z,101120.94
2022-08-17T07:27:14.443Z,101114.63
2022-08-17T07:27:53.097Z,101117.00
2022-08-17T07:28:27.744Z,101117.00
2022-08-17T07:28:59.589Z,101109.91
2022-08-17T07:29:33.035Z,101124.13
2022-08-17T07:30:10.562Z,101121.78
2022-08-17T07:30:50.752Z,101121.00
2022-08-17T07:31:24.964Z,101119.44
2022-08-17T07:31:57.346Z,101124.63
2022-08-17T07:32:42.956Z,101122.75
2022-08-17T07:33:25.628Z,101117.97
2022-08-17T07:34:14.398Z,101121.09
2022-08-17T07:35:11.155Z,101130.94
2022-08-17T07:36:02.300Z,101130.19
2022-08-17T07:36:52.747Z,101128.97
2022-08-17T07:37:24.079Z,101129.75
2022-08-17T07:38:25.394Z,101129.75
2022-08-17T07:38:58.228Z,101130.53
2022-08-17T07:39:30.205Z,101123.00
2022-08-17T07:40:17.063Z,101123.00
2022-08-17T07:42:01.357Z,101118.66
2022-08-17T07:42:34.392Z,101122.66
2022-08-17T07:43:15.601Z,101123.84
2022-08-17T07:43:53.721Z,101121.88
2022-08-17T07:44:25.101Z,101122.66
2022-08-17T07:44:56.523Z,101122.66
2022-08-17T07:45:46.737Z,101126.97